createdAt,value
2022-08-14T00:02:16.572Z,57.80
2022-08-14T00:04:44.984Z,57.91
2022-08-14T00:07:14.753Z,58.45
2022-08-14T00:10:02.065Z,58.36
2022-08-14T00:12:39.433Z,59.00
2022-08-14T00:15:11.713Z,59.07
2022-08-14T00:17:47.965Z,59.52
2022-08-14T00:20:30.974Z,59.62
2022-08-14T00:23:12.254Z,59.09
2022-08-14T00:25:58.853Z,59.38
2022-08-14T00:28:35.750Z,60.21
2022-08-14T00:31:06.644Z,60.79
2022-08-14T00:33:51.026Z,60.55
2022-08-14T00:36:37.229Z,60.69
2022-08-14T00:39:13.728Z,60.67
2022-08-14T00:41:43.698Z,61.10
2022-08-14T00:44:11.514Z,60.63
2022-08-14T00:46:40.922Z,61.40
2022-08-14T00:49:11.557Z,62.00
2022-08-14T00:51:44.092Z,61.53
2022-08-14T00:54:21.579Z,61.30
2022-08-14T00:56:55.555Z,62.05
2022-08-14T00:59:25.405Z,62.48
2022-08-14T01:01:55.867Z,62.66
2022-08-14T01:04:38.281Z,62.78
2022-08-14T01:07:14.284Z,62.92
2022-08-14T01:09:42.559Z,62.64
2022-08-14T01:12:13.177Z,63.05
2022-08-14T01:14:55.820Z,63.03
2022-08-14T01:17:49.682Z,63.14
2022-08-14T01:20:35.888Z,63.65
2022-08-14T01:23:16.797Z,63.72
2022-08-14T01:25:48.489Z,64.44
2022-08-14T01:28:46.895Z,63.97
2022-08-14T01:31:08.768Z,64.66
2022-08-14T01:34:00.415Z,63.74
2022-08-14T01:36:35.427Z,64.60
2022-08-14T01:39:12.958Z,64.80
2022-08-14T01:41:42.761Z,65.27
2022-08-14T01:44:32.648Z,65.44
2022-08-14T01:47:05.894Z,65.56
2022-08-14T01:49:35.674Z,65.97
2022-08-14T01:52:34.079Z,65.45
2022-08-14T01:54:58.654Z,66.05
2022-08-14T01:57:49.732Z,66.10
2022-08-14T02:00:16.773Z,66.06
2022-08-14T02:02:46.755Z,66.61
2022-08-14T02:05:15.605Z,66.71
2022-08-14T02:07:55.925Z,66.80
2022-08-14T02:10:35.465Z,66.20
2022-08-14T02:13:13.983Z,66.49
2022-08-14T02:15:44.368Z,66.40
2022-08-14T02:18:15.352Z,66.11
2022-08-14T02:20:43.621Z,65.90
2022-08-14T02:23:11.818Z,65.79
2022-08-14T02:25:40.983Z,65.23
2022-08-14T02:28:26.102Z,66.21
2022-08-14T02:30:56.605Z,66.74
2022-08-14T02:33:25.255Z,67.10
2022-08-14T02:35:57.926Z,67.17
2022-08-14T02:38:34.968Z,66.96
2022-08-14T02:41:08.833Z,67.59
2022-08-14T02:43:45.996Z,67.79
2022-08-14T02:46:20.421Z,68.16
2022-08-14T02:49:01.918Z,68.29
2022-08-14T02:51:34.611Z,67.24
2022-08-14T02:54:03.695Z,67.13
2022-08-14T02:57:15.982Z,67.43
2022-08-14T02:59:28.897Z,67.08
2022-08-14T03:02:02.133Z,67.33
2022-08-14T03:04:30.788Z,67.52
2022-08-14T03:07:07.600Z,67.18
2022-08-14T03:10:25.007Z,66.87
2022-08-14T03:12:32.011Z,67.62
2022-08-14T03:15:03.640Z,67.62
2022-08-14T03:17:56.623Z,68.69
2022-08-14T03:20:22.388Z,68.64
2022-08-14T03:22:51.426Z,69.15
2022-08-14T03:25:21.694Z,69.48
2022-08-14T03:27:58.253Z,69.61
2022-08-14T03:30:39.856Z,70.15
2022-08-14T03:33:11.191Z,70.38
2022-08-14T03:36:05.089Z,70.01
2022-08-14T03:39:13.383Z,69.41
2022-08-14T03:41:23.167Z,69.28
2022-08-14T03:43:57.151Z,69.01
2022-08-14T03:46:52.526Z,69.28
2022-08-14T03:49:24.127Z,69.74
2022-08-14T03:51:56.017Z,69.61
2022-08-14T03:54:25.979Z,70.38
2022-08-14T03:56:54.626Z,70.31
2022-08-14T03:59:23.903Z,70.59
2022-08-14T04:02:01.755Z,70.35
2022-08-14T04:04:30.682Z,70.49
2022-08-14T04:07:00.016Z,70.04
2022-08-14T04:09:29.216Z,70.05
2022-08-14T04:11:58.199Z,69.92
2022-08-14T04:14:29.062Z,70.16
2022-08-14T04:16:57.283Z,70.28
2022-08-14T04:19:28.094Z,70.48
2022-08-14T04:22:03.347Z,70.42
2022-08-14T04:24:38.197Z,70.58
2022-08-14T04:27:07.302Z,70.31
2022-08-14T04:29:40.128Z,70.54
2022-08-14T04:33:02.205Z,70.49
2022-08-14T04:34:59.862Z,70.82
2022-08-14T04:37:45.844Z,70.91
2022-08-14T04:40:32.043Z,71.24
2022-08-14T04:43:17.887Z,71.39
2022-08-14T04:45:51.052Z,71.32
2022-08-14T04:48:36.707Z,70.76
2022-08-14T04:51:12.390Z,70.24
2022-08-14T04:53:43.839Z,70.35
2022-08-14T04:56:30.925Z,70.33
2022-08-14T04:59:10.261Z,69.91
2022-08-14T05:01:49.120Z,69.88
2022-08-14T05:04:20.897Z,69.63
2022-08-14T05:06:53.691Z,69.57
2022-08-14T05:09:23.288Z,68.89
2022-08-14T05:11:51.574Z,69.18
2022-08-14T05:14:43.344Z,68.96
2022-08-14T05:17:12.211Z,68.48
2022-08-14T05:19:44.250Z,68.49
2022-08-14T05:22:28.104Z,68.34
2022-08-14T05:24:55.973Z,68.31
2022-08-14T05:27:24.172Z,67.57
2022-08-14T05:29:55.408Z,67.89
2022-08-14T05:32:28.159Z,67.92
2022-08-14T05:34:58.989Z,67.12
2022-08-14T05:37:28.179Z,67.01
2022-08-14T05:39:58.163Z,67.05
2022-08-14T05:42:31.857Z,66.16
2022-08-14T05:45:01.683Z,65.99
2022-08-14T05:47:39.565Z,65.60
2022-08-14T05:50:17.380Z,65.31
2022-08-14T05:52:49.097Z,64.96
2022-08-14T05:55:22.719Z,64.46
2022-08-14T05:57:59.491Z,64.44
2022-08-14T06:00:34.791Z,64.45
2022-08-14T06:03:10.249Z,64.56
2022-08-14T06:05:39.454Z,64.32
2022-08-14T06:08:21.660Z,63.73
2022-08-14T06:11:03.147Z,63.70
2022-08-14T06:13:44.614Z,63.29
2022-08-14T06:16:15.428Z,63.55
2022-08-14T06:18:51.736Z,62.90
2022-08-14T06:21:21.334Z,62.80
2022-08-14T06:23:49.764Z,62.53
2022-08-14T06:26:20.595Z,62.33
2022-08-14T06:28:52.124Z,61.84
2022-08-14T06:31:20.800Z,61.70
2022-08-14T06:35:11.701Z,61.30
2022-08-14T06:36:39.321Z,60.75
2022-08-14T06:39:08.126Z,61.09
2022-08-14T06:41:58.176Z,61.00
2022-08-14T06:44:30.714Z,60.34
2022-08-14T06:47:00.928Z,60.21
2022-08-14T06:49:30.998Z,59.98
2022-08-14T06:52:08.402Z,59.94
2022-08-14T06:54:36.376Z,59.67
2022-08-14T06:57:04.591Z,59.93
2022-08-14T06:59:33.735Z,59.03
2022-08-14T07:02:19.345Z,58.94
2022-08-14T07:05:06.179Z,58.67
2022-08-14T07:07:39.149Z,58.73
2022-08-14T07:10:07.886Z,58.69
2022-08-14T07:13:00.940Z,58.30
2022-08-14T07:15:39.648Z,58.24
2022-08-14T07:18:09.293Z,57.23
2022-08-14T07:20:39.840Z,57.31
2022-08-14T07:23:20.551Z,57.59
2022-08-14T07:25:51.434Z,57.07
2022-08-14T07:28:23.396Z,56.32
2022-08-14T07:30:52.119Z,56.38
2022-08-14T07:33:24.915Z,55.86
2022-08-14T07:36:00.329Z,56.05
2022-08-14T07:38:35.855Z,56.08
2022-08-14T07:41:11.932Z,55.31
2022-08-14T07:43:52.991Z,55.03
2022-08-14T07:46:29.538Z,54.86
2022-08-14T07:48:58.979Z,53.91
2022-08-14T07:51:34.495Z,54.48
2022-08-14T07:54:11.305Z,54.60
2022-08-14T07:56:47.029Z,53.58
2022-08-14T07:59:18.296Z,53.64
2022-08-14T08:01:51.345Z,53.81
2022-08-14T08:04:24.512Z,53.75
2022-08-14T08:06:56.653Z,53.48
2022-08-14T08:09:31.897Z,53.48
2022-08-14T08:12:01.654Z,53.66
2022-08-14T08:14:34.594Z,52.89
2022-08-14T08:17:24.390Z,53.10
2022-08-14T08:19:53.698Z,52.74
2022-08-14T08:22:27.463Z,51.93
2022-08-14T08:25:00.808Z,50.65
2022-08-14T08:27:28.855Z,50.93
2022-08-14T08:30:10.262Z,51.18
2022-08-14T08:32:41.214Z,50.63
2022-08-14T08:35:18.721Z,50.25
2022-08-14T08:37:48.109Z,49.14
2022-08-14T08:40:31.226Z,49.94
2022-08-14T08:43:00.365Z,49.82
2022-08-14T08:45:29.443Z,48.65
2022-08-14T08:47:57.246Z,48.92
2022-08-14T08:53:02.097Z,49.45
2022-08-14T08:55:32.791Z,49.13
2022-08-14T08:58:04.471Z,48.95
2022-08-14T09:00:36.266Z,48.50
2022-08-14T09:03:06.944Z,48.10
2022-08-14T09:05:40.388Z,48.30
2022-08-14T09:08:30.683Z,48.33
2022-08-14T09:11:02.835Z,48.25
2022-08-14T09:13:49.117Z,47.48
2022-08-14T09:16:23.706Z,47.12
2022-08-14T09:18:53.852Z,47.96
2022-08-14T09:21:23.901Z,47.01
2022-08-14T09:24:28.369Z,47.60
2022-08-14T09:26:49.591Z,46.60
2022-08-14T09:29:22.824Z,46.19
2022-08-14T09:31:57.746Z,46.24
2022-08-14T09:34:58.833Z,46.14
2022-08-14T09:37:48.059Z,46.15
2022-08-14T09:40:29.500Z,45.99
2022-08-14T09:43:07.818Z,44.07
2022-08-14T09:45:53.443Z,45.86
2022-08-14T09:48:30.716Z,43.70
2022-08-14T09:54:17.944Z,43.38
2022-08-14T09:56:45.616Z,42.91
2022-08-14T09:59:16.073Z,42.70
2022-08-14T10:01:46.199Z,42.38
2022-08-14T10:04:33.648Z,42.45
2022-08-14T10:07:05.084Z,41.94
2022-08-14T10:09:34.677Z,41.09
2022-08-14T10:12:06.682Z,41.65
2022-08-14T10:14:44.242Z,42.01
2022-08-14T10:17:26.765Z,41.71
2022-08-14T10:19:55.703Z,41.03
2022-08-14T10:23:15.099Z,40.19
2022-08-14T10:25:19.684Z,40.00
2022-08-14T10:27:59.723Z,39.36
2022-08-14T10:30:37.636Z,39.90
2022-08-14T10:33:05.608Z,40.92
2022-08-14T10:35:43.261Z,39.66
2022-08-14T10:38:26.698Z,38.99
2022-08-14T10:40:59.339Z,39.79
2022-08-14T10:43:31.778Z,39.22
2022-08-14T10:46:21.793Z,38.39
2022-08-14T10:49:02.838Z,38.26
2022-08-14T10:51:36.156Z,37.83
2022-08-14T10:54:16.989Z,37.32
2022-08-14T10:56:57.870Z,37.46
2022-08-14T10:59:36.149Z,37.31
2022-08-14T11:02:22.270Z,37.15
2022-08-14T11:05:13.050Z,37.24
2022-08-14T11:07:44.376Z,37.70
2022-08-14T11:10:14.381Z,36.46
2022-08-14T11:12:48.063Z,36.74
2022-08-14T11:15:19.865Z,33.83
2022-08-14T11:17:48.738Z,33.49
2022-08-14T11:20:19.114Z,34.80
2022-08-14T11:22:52.932Z,34.78
2022-08-14T11:25:44.088Z,34.72
2022-08-14T11:28:19.111Z,34.85
2022-08-14T11:30:53.779Z,32.73
2022-08-14T11:33:29.381Z,32.09
2022-08-14T11:36:00.321Z,31.96
2022-08-14T11:38:37.869Z,31.86
2022-08-14T11:41:06.128Z,32.09
2022-08-14T11:43:40.534Z,32.76
2022-08-14T11:46:17.933Z,31.57
2022-08-14T11:49:05.435Z,31.48
2022-08-14T11:51:36.455Z,31.39
2022-08-14T11:54:34.971Z,30.68
2022-08-14T11:57:04.560Z,30.73
2022-08-14T11:59:33.752Z,31.24
2022-08-14T12:03:00.247Z,30.19
2022-08-14T12:04:59.897Z,31.04
2022-08-14T12:07:27.968Z,30.09
2022-08-14T12:09:59.236Z,29.73
2022-08-14T12:12:35.208Z,29.47
2022-08-14T12:15:03.289Z,29.68
2022-08-14T12:17:47.284Z,29.34
2022-08-14T12:20:32.308Z,28.99
2022-08-14T12:23:02.144Z,29.04
2022-08-14T12:25:30.569Z,28.18
2022-08-14T12:28:05.559Z,29.28
2022-08-14T12:30:43.133Z,28.70
2022-08-14T12:33:26.984Z,29.32
2022-08-14T12:36:05.573Z,29.11
2022-08-14T12:38:36.450Z,29.29
2022-08-14T12:41:10.279Z,29.51
2022-08-14T12:43:48.028Z,28.50
2022-08-14T12:46:27.516Z,29.17
2022-08-14T12:49:00.085Z,29.22
2022-08-14T12:51:31.377Z,29.34
2022-08-14T12:54:01.121Z,28.84
2022-08-14T12:56:33.033Z,28.78
2022-08-14T12:59:04.565Z,29.06
2022-08-14T13:01:59.432Z,29.04
2022-08-14T13:04:24.748Z,29.01
2022-08-14T13:06:53.789Z,29.65
2022-08-14T13:09:27.798Z,28.84
2022-08-14T13:12:32.556Z,28.83
2022-08-14T13:14:57.779Z,29.25
2022-08-14T13:17:27.013Z,29.54
2022-08-14T13:20:00.605Z,29.12
2022-08-14T13:22:42.639Z,28.72
2022-08-14T13:25:15.919Z,28.45
2022-08-14T13:27:47.633Z,29.71
2022-08-14T13:30:23.673Z,28.85
2022-08-14T13:32:53.345Z,29.45
2022-08-14T13:35:23.117Z,29.30
2022-08-14T13:37:53.463Z,28.62
2022-08-14T13:40:26.252Z,28.48
2022-08-14T13:42:57.243Z,29.17
2022-08-14T13:45:33.616Z,28.51
2022-08-14T13:48:27.370Z,28.33
2022-08-14T13:51:07.904Z,28.26
2022-08-14T13:54:07.006Z,28.56
2022-08-14T13:56:38.007Z,27.88
2022-08-14T13:59:07.478Z,26.63
2022-08-14T14:01:44.000Z,23.57
2022-08-14T14:04:19.391Z,20.54
2022-08-14T14:06:51.930Z,19.03
2022-08-14T14:09:26.980Z,19.69
2022-08-14T14:12:01.247Z,21.63
2022-08-14T14:14:50.845Z,19.92
2022-08-14T14:17:24.379Z,19.69
2022-08-14T14:19:52.590Z,20.00
2022-08-14T14:22:36.109Z,21.47
2022-08-14T14:25:14.465Z,22.75
2022-08-14T14:27:53.259Z,24.74
2022-08-14T14:30:52.059Z,24.55
2022-08-14T14:33:44.570Z,24.67
2022-08-14T14:36:05.024Z,26.99
2022-08-14T14:38:35.142Z,28.24
2022-08-14T14:41:05.743Z,28.48
2022-08-14T14:43:37.384Z,27.23
2022-08-14T14:46:10.258Z,26.16
2022-08-14T14:48:46.468Z,23.93
2022-08-14T14:51:16.659Z,22.74
2022-08-14T14:53:47.149Z,23.36
2022-08-14T14:56:50.686Z,25.20
2022-08-14T14:59:03.095Z,27.45
2022-08-14T15:01:36.133Z,25.43
2022-08-14T15:04:07.982Z,22.54
2022-08-14T15:06:48.397Z,19.86
2022-08-14T15:09:18.451Z,19.52
2022-08-14T15:11:48.126Z,18.16
2022-08-14T15:14:55.357Z,18.79
2022-08-14T15:17:06.385Z,19.01
2022-08-14T15:19:34.453Z,18.49
2022-08-14T15:22:02.263Z,19.70
2022-08-14T15:24:31.755Z,19.74
2022-08-14T15:27:00.312Z,22.55
2022-08-14T15:29:28.390Z,24.99
2022-08-14T15:31:56.318Z,25.70
2022-08-14T15:34:43.645Z,23.83
2022-08-14T15:37:16.719Z,21.25
2022-08-14T15:39:46.265Z,20.54
2022-08-14T15:42:16.376Z,21.31
2022-08-14T15:44:57.181Z,23.11
2022-08-14T15:47:30.806Z,24.61
2022-08-14T15:50:00.253Z,26.69
2022-08-14T15:52:32.394Z,28.58
2022-08-14T15:55:06.741Z,27.51
2022-08-14T15:57:36.226Z,27.82
2022-08-14T16:00:40.457Z,29.29
2022-08-14T16:03:12.717Z,28.16
2022-08-14T16:05:43.657Z,28.72
2022-08-14T16:08:29.033Z,29.54
2022-08-14T16:11:01.471Z,30.23
2022-08-14T16:13:41.593Z,29.11
2022-08-14T16:16:46.948Z,30.63
2022-08-14T16:19:07.508Z,29.78
2022-08-14T16:21:40.921Z,29.51
2022-08-14T16:24:33.016Z,30.10
2022-08-14T16:27:03.491Z,30.18
2022-08-14T16:29:35.666Z,30.99
2022-08-14T16:32:33.007Z,30.36
2022-08-14T16:34:54.872Z,30.68
2022-08-14T16:37:30.802Z,30.28
2022-08-14T16:40:02.533Z,30.62
2022-08-14T16:42:41.919Z,31.49
2022-08-14T16:45:24.892Z,31.70
2022-08-14T16:47:53.088Z,31.48
2022-08-14T16:50:43.623Z,30.67
2022-08-14T16:53:09.600Z,30.81
2022-08-14T16:55:53.723Z,31.04
2022-08-14T16:58:29.960Z,31.19
2022-08-14T17:01:23.229Z,31.23
2022-08-14T17:03:59.605Z,30.73
2022-08-14T17:06:47.086Z,31.15
2022-08-14T17:09:44.702Z,32.78
2022-08-14T17:12:33.526Z,32.02
2022-08-14T17:15:10.274Z,32.03
2022-08-14T17:17:49.990Z,31.77
2022-08-14T17:20:54.650Z,32.21
2022-08-14T17:23:15.140Z,32.46
2022-08-14T17:25:49.244Z,32.19
2022-08-14T17:31:12.280Z,31.71
2022-08-14T17:33:44.503Z,32.01
2022-08-14T17:36:22.451Z,32.16
2022-08-14T17:39:00.468Z,33.03
2022-08-14T17:41:38.678Z,32.95
2022-08-14T17:44:20.211Z,32.30
2022-08-14T17:46:58.165Z,32.75
2022-08-14T17:49:32.153Z,32.89
2022-08-14T17:52:17.046Z,33.05
2022-08-14T17:54:58.847Z,33.44
2022-08-14T17:57:40.617Z,33.61
2022-08-14T18:00:12.207Z,33.44
2022-08-14T18:02:50.531Z,33.89
2022-08-14T18:05:23.315Z,33.76
2022-08-14T18:08:33.334Z,35.12
2022-08-14T18:10:54.839Z,35.26
2022-08-14T18:13:50.986Z,35.42
2022-08-14T18:16:20.236Z,35.54
2022-08-14T18:18:52.339Z,36.02
2022-08-14T18:21:42.103Z,36.11
2022-08-14T18:24:20.130Z,36.38
2022-08-14T18:27:08.903Z,37.31
2022-08-14T18:29:43.026Z,37.77
2022-08-14T18:32:47.038Z,38.56
2022-08-14T18:35:19.312Z,37.71
2022-08-14T18:37:55.608Z,38.15
2022-08-14T18:40:34.659Z,38.95
2022-08-14T18:43:04.022Z,39.66
2022-08-14T18:45:33.451Z,39.77
2022-08-14T18:48:33.333Z,41.29
2022-08-14T18:51:45.601Z,41.77
2022-08-14T18:54:32.746Z,43.04
2022-08-14T18:57:03.993Z,41.95
2022-08-14T18:59:36.489Z,42.73
2022-08-14T19:02:43.264Z,42.52
2022-08-14T19:05:13.437Z,42.97
2022-08-14T19:07:48.108Z,43.36
2022-08-14T19:10:37.473Z,43.97
2022-08-14T19:13:12.003Z,44.36
2022-08-14T19:15:43.912Z,44.51
2022-08-14T19:18:28.700Z,45.10
2022-08-14T19:20:58.872Z,44.66
2022-08-14T19:23:43.842Z,45.45
2022-08-14T19:26:35.664Z,45.39
2022-08-14T19:29:39.876Z,46.23
2022-08-14T19:32:40.337Z,46.53
2022-08-14T19:35:55.712Z,47.13
2022-08-14T19:38:53.484Z,47.52
2022-08-14T19:41:25.070Z,46.96
2022-08-14T19:44:10.569Z,47.30
2022-08-14T19:47:02.804Z,46.97
2022-08-14T19:50:08.190Z,46.91
2022-08-14T19:52:23.044Z,47.84
2022-08-14T19:54:52.879Z,48.09
2022-08-14T19:57:22.275Z,47.76
2022-08-14T20:00:00.559Z,47.99
2022-08-14T20:02:30.066Z,45.95
2022-08-14T20:05:02.928Z,45.80
2022-08-14T20:07:56.293Z,45.94
2022-08-14T20:11:11.245Z,46.57
2022-08-14T20:13:32.296Z,47.81
2022-08-14T20:16:12.249Z,48.75
2022-08-14T20:18:51.997Z,50.02
2022-08-14T20:21:24.803Z,49.55
2022-08-14T20:24:31.906Z,49.74
2022-08-14T20:27:22.500Z,48.75
2022-08-14T20:30:32.847Z,48.81
2022-08-14T20:33:07.379Z,48.36
2022-08-14T20:35:42.751Z,48.63
2022-08-14T20:38:29.082Z,48.71
2022-08-14T20:41:01.658Z,49.59
2022-08-14T20:43:55.779Z,50.25
2022-08-14T20:46:30.148Z,50.31
2022-08-14T20:49:01.269Z,50.84
2022-08-14T20:51:36.435Z,50.89
2022-08-14T20:54:07.703Z,50.57
2022-08-14T20:56:38.293Z,51.48
2022-08-14T20:59:18.946Z,51.47
2022-08-14T21:01:51.592Z,51.67
2022-08-14T21:04:30.007Z,51.31
2022-08-14T21:07:25.020Z,49.97
2022-08-14T21:10:06.234Z,49.01
2022-08-14T21:13:14.358Z,50.53
2022-08-14T21:15:32.276Z,50.15
2022-08-14T21:18:01.662Z,50.53
2022-08-14T21:20:29.607Z,50.17
2022-08-14T21:23:01.154Z,49.92
2022-08-14T21:25:31.920Z,50.27
2022-08-14T21:28:03.236Z,50.82
2022-08-14T21:30:52.028Z,51.80
2022-08-14T21:33:22.596Z,51.64
2022-08-14T21:35:54.697Z,51.99
2022-08-14T21:38:33.639Z,51.76
2022-08-14T21:41:42.557Z,52.06
2022-08-14T21:44:18.038Z,52.17
2022-08-14T21:46:53.547Z,52.14
2022-08-14T21:49:25.523Z,51.94
2022-08-14T21:52:51.013Z,51.83
2022-08-14T21:54:53.417Z,51.40
2022-08-14T21:57:53.514Z,50.92
2022-08-14T22:00:34.888Z,51.14
2022-08-14T22:03:05.481Z,51.51
2022-08-14T22:05:35.007Z,52.29
2022-08-14T22:08:07.286Z,53.18
2022-08-14T22:10:35.912Z,51.64
2022-08-14T22:13:05.409Z,51.52
2022-08-14T22:15:35.415Z,52.47
2022-08-14T22:18:04.769Z,53.21
2022-08-14T22:20:36.276Z,53.16
2022-08-14T22:23:08.571Z,52.79
2022-08-14T22:25:41.142Z,50.78
2022-08-14T22:28:12.043Z,49.40
2022-08-14T22:30:41.708Z,49.80
2022-08-14T22:33:13.358Z,49.28
2022-08-14T22:35:44.225Z,49.23
2022-08-14T22:38:36.549Z,50.24
2022-08-14T22:41:26.594Z,50.37
2022-08-14T22:43:52.247Z,50.81
2022-08-14T22:46:21.699Z,51.28
2022-08-14T22:48:51.061Z,51.36
2022-08-14T22:51:22.610Z,52.69
2022-08-14T22:53:53.171Z,53.08
2022-08-14T22:56:22.338Z,54.15
2022-08-14T22:59:00.206Z,54.25
2022-08-14T23:01:57.223Z,54.23
2022-08-14T23:04:34.123Z,53.62
2022-08-14T23:07:21.770Z,53.24
2022-08-14T23:09:55.987Z,52.61
2022-08-14T23:12:28.644Z,52.64
2022-08-14T23:14:58.835Z,52.29
2022-08-14T23:17:27.606Z,51.46
2022-08-14T23:20:19.280Z,50.74
2022-08-14T23:22:51.827Z,49.81
2022-08-14T23:25:56.945Z,49.28
2022-08-14T23:28:33.752Z,48.83
2022-08-14T23:31:01.723Z,48.49
2022-08-14T23:33:29.676Z,48.57
2022-08-14T23:35:58.875Z,48.13
2022-08-14T23:38:30.366Z,47.80
2022-08-14T23:41:00.614Z,47.56
2022-08-14T23:43:31.355Z,47.19
2022-08-14T23:45:59.847Z,47.49
2022-08-14T23:48:28.626Z,47.35
2022-08-14T23:50:59.004Z,47.62
2022-08-14T23:53:48.771Z,47.74
2022-08-14T23:56:31.703Z,47.97
2022-08-14T23:59:01.795Z,47.98
